Latest Weather Observations for Wilsons Promontory

IDV60801

Issued at 3:32 am EST Sunday 26 June 2016 (issued every 30 minutes, with the page automatically refreshed every 10 minutes)

About weather observations | Map of weather stations | Latest weather observations for VIC | Other Formats
Station Details ID: 085096 Name: WILSONS PROMONTORY LIGHTHOUSE Lat: -39.13 Lon: 146.42 Height: 95.0 m
Data from the previous 72 hours. | See also: Recent months at Wilsons Promontory
Date/Time
EST
Temp
°C
App
Temp
°C
Dew
Point
°C
Rel
Hum
%
Delta-T
°C
Wind Press
QNH
hPa
Press
MSL
hPa
Rain since
9am
mm
Dir  Spd
km/h
Gust
km/h
Spd
kts
Gust
kts
26/03:30am 10.2 4.8 7.8 85 1.2 WNW 26 44 14 24 1018.4 - 2.4
26/03:10am 10.3 4.4 7.7 84 1.3 W 28 46 15 25 1018.3 - 2.4
26/03:00am 11.0 6.0 7.9 81 1.5 W 24 44 13 24 1018.2 1018.3 2.4
26/02:37am 10.7 6.1 8.3 85 1.2 W 22 43 12 23 1018.5 - 2.4
26/02:30am 10.4 3.0 8.2 86 1.1 SW 37 46 20 25 1018.3 - 2.4
26/02:24am 10.2 2.7 8.0 86 1.1 SW 37 46 20 25 1018.2 - 2.4
26/02:00am 10.6 5.7 7.1 79 1.7 W 22 39 12 21 1018.7 - 2.4
26/01:30am 10.9 4.7 8.0 82 1.4 W 30 43 16 23 1018.5 - 2.4
26/01:00am 10.7 4.9 7.8 82 1.4 W 28 43 15 23 1018.7 - 2.4
26/12:30am 10.7 5.7 7.9 83 1.4 W 24 35 13 19 1018.9 - 2.4
26/12:04am 10.6 4.8 8.0 84 1.3 W 28 48 15 26 1018.9 - 2.4
26/12:00am 10.7 4.9 7.8 82 1.4 W 28 39 15 21 1018.9 1019.0 2.4
 
Date/Time
EST
Temp
°C
App
Temp
°C
Dew
Point
°C
Rel
Hum
%
Delta-T
°C
Wind Press
QNH
hPa
Press
MSL
hPa
Rain since
9am
mm
Dir  Spd
km/h
Gust
km/h
Spd
kts
Gust
kts
25/11:30pm 10.5 4.7 7.9 84 1.3 W 28 41 15 22 1018.9 - 2.4
25/11:00pm 10.5 3.9 8.4 87 1.0 W 33 44 18 24 1019.4 - 2.4
25/10:30pm 10.3 4.2 8.4 88 0.9 W 30 46 16 25 1019.5 - 2.2
25/10:06pm 10.4 3.9 8.0 85 1.2 W 32 50 17 27 1019.5 - 1.0
25/10:00pm 10.5 4.7 8.1 85 1.2 W 28 37 15 20 1019.7 - 1.0
25/09:30pm 10.3 3.8 8.1 86 1.1 W 32 41 17 22 1019.7 - 1.0
25/09:00pm 10.4 4.3 8.2 86 1.1 W 30 41 16 22 1019.9 1020.0 1.0
25/08:30pm 10.2 4.4 8.1 87 1.0 W 28 39 15 21 1019.9 - 0.8
25/08:00pm 10.1 3.4 7.5 84 1.2 W 32 41 17 22 1020.2 - 0.4
25/07:30pm 10.8 5.5 6.6 75 2.0 W 24 35 13 19 1020.1 - 0.2
25/07:00pm 10.8 5.0 6.4 74 2.1 W 26 41 14 22 1020.1 - 0.2
25/06:30pm 10.5 5.2 6.6 77 1.8 W 24 37 13 20 1020.1 - 0.2
25/06:00pm 10.4 5.1 6.9 79 1.7 W 24 33 13 18 1020.1 1020.2 0.2
25/05:30pm 10.2 4.8 6.5 78 1.7 W 24 39 13 21 1019.9 - 0.2
25/05:00pm 10.2 4.2 6.9 80 1.6 W 28 39 15 21 1019.8 - 0.2
25/04:30pm 10.6 4.5 6.4 75 2.0 W 28 43 15 23 1019.6 - 0.0
25/04:00pm 10.7 4.4 5.9 72 2.2 W 28 41 15 22 1019.8 - 0.0
25/03:30pm 10.7 5.5 5.5 70 2.4 W 22 33 12 18 1019.7 - 0.0
25/03:00pm 10.9 4.5 5.4 69 2.5 W 28 39 15 21 1019.5 1019.6 0.0
25/02:30pm 10.8 3.6 5.8 71 2.3 W 33 46 18 25 1019.2 - 0.0
25/02:00pm 10.7 2.7 5.5 70 2.4 WSW 37 48 20 26 1019.2 - 0.0
25/01:30pm 10.6 1.7 4.9 68 2.6 WSW 41 50 22 27 1019.2 - 0.0
25/01:00pm 10.5 1.0 4.0 64 2.9 WSW 43 56 23 30 1019.5 - 0.0
25/12:30pm 10.4 0.3 3.9 64 2.9 WSW 46 57 25 31 1019.4 - 0.0
25/12:00pm 10.3 0.5 3.6 63 2.9 WSW 44 54 24 29 1019.5 1019.6 0.0
25/11:30am 10.2 -0.7 3.5 63 2.9 SW 50 59 27 32 1019.5 - 0.0
25/11:00am 10.2 0.1 3.9 65 2.8 SW 46 57 25 31 1019.5 - 0.0
25/10:30am 10.1 -0.8 3.4 63 2.9 SW 50 61 27 33 1019.4 - 0.0
25/10:00am 9.8 1.3 2.9 62 3.0 SW 37 56 20 30 1019.2 - 0.0
25/09:54am 9.8 2.6 3.1 63 2.9 SW 30 56 16 30 1019.0 - 0.0
25/09:53am 9.8 3.7 2.6 61 3.1 SW 24 56 13 30 1018.9 - 0.0
25/09:30am 9.8 -2.4 2.6 61 3.1 WSW 56 63 30 34 1018.8 - 0.0
25/09:22am 9.7 -2.7 2.8 62 3.0 SW 57 65 31 35 1018.5 - 0.0
25/09:00am 9.5 1.4 3.3 65 2.7 SW 35 65 19 35 1018.2 1018.3 4.6
25/08:59am 9.5 2.6 2.8 63 2.9 NW 28 65 15 35 1018.1 - 4.6
25/08:57am 9.5 4.3 2.6 62 2.9 NNE 19 65 10 35 1018.0 - 4.6
25/08:30am 9.4 -1.2 2.9 64 2.8 SW 48 67 26 36 1018.3 - 4.6
25/08:29am 9.4 -1.2 3.2 65 2.7 SW 48 67 26 36 1018.1 - 4.6
25/08:18am 9.3 -2.5 2.9 64 2.7 SW 54 61 29 33 1018.0 - 4.6
25/08:01am 8.6 1.7 4.4 75 1.9 W 30 48 16 26 1018.5 - 4.6
25/08:00am 8.5 1.2 4.3 75 1.8 W 32 48 17 26 1018.5 - 4.6
25/07:46am 8.1 0.7 3.8 74 1.9 W 32 67 17 36 1018.3 - 4.6
25/07:31am 8.2 -3.8 3.5 72 2.0 WSW 56 74 30 40 1018.1 - 4.6
25/07:30am 8.3 -3.9 3.6 72 2.0 WSW 57 74 31 40 1017.8 - 4.6
25/07:28am 8.6 -3.7 3.2 69 2.3 WSW 57 74 31 40 1017.4 - 4.6
25/07:18am 9.1 2.0 3.3 67 2.5 WSW 30 67 16 36 1017.7 - 4.6
25/07:09am 9.1 -3.6 2.9 65 2.7 WSW 59 67 32 36 1017.3 - 4.6
25/07:05am 9.1 0.8 2.4 63 2.8 WSW 35 54 19 29 1017.6 - 4.6
25/07:00am 8.8 1.3 4.2 73 2.0 WSW 33 46 18 25 1017.7 - 4.6
25/06:40am 8.2 -1.5 3.7 73 1.9 W 44 72 24 39 1017.3 - 4.6
25/06:38am 8.2 -1.5 3.7 73 1.9 W 44 72 24 39 1017.2 - 4.6
25/06:30am 9.4 -1.2 3.2 65 2.7 SW 48 72 26 39 1016.6 - 4.6
25/06:25am 9.2 -0.7 2.8 64 2.7 SW 44 72 24 39 1016.5 - 4.6
25/06:00am 9.3 -3.1 2.6 63 2.9 SW 57 69 31 37 1016.4 1016.5 4.6
25/05:59am 9.2 -3.3 1.9 60 3.1 SW 57 69 31 37 1016.3 - 4.6
25/05:48am 9.4 1.8 2.9 64 2.8 SW 32 65 17 35 1016.1 - 4.6
25/05:30am 9.2 -3.8 1.4 58 3.2 SW 59 74 32 40 1015.8 - 4.6
25/05:00am 9.2 -4.5 1.6 59 3.2 SW 63 72 34 39 1015.4 - 4.6
25/04:30am 9.5 -1.2 2.6 62 2.9 SW 48 69 26 37 1015.1 - 4.6
25/04:04am 9.3 -3.4 1.0 56 3.4 SW 57 78 31 42 1014.4 - 4.6
25/04:00am 9.6 -2.7 2.9 63 2.9 SW 57 72 31 39 1014.7 - 4.6
25/03:59am 9.3 -3.5 2.6 63 2.9 SW 59 72 32 39 1014.9 - 4.6
25/03:56am 9.2 2.5 3.4 67 2.5 SSW 28 72 15 39 1015.0 - 4.6
25/03:55am 9.0 3.7 3.0 66 2.6 SE 20 72 11 39 1014.8 - 4.6
25/03:30am 9.2 -5.0 0.9 56 3.4 SW 65 80 35 43 1014.3 - 4.6
25/03:00am 9.3 -4.6 2.9 64 2.7 SW 65 78 35 42 1014.1 1014.2 4.6
25/02:30am 9.1 -3.7 2.7 64 2.7 SW 59 80 32 43 1014.1 - 4.6
25/02:17am 9.2 -3.9 2.8 64 2.7 SW 61 72 33 39 1013.7 - 4.6
25/02:11am 9.1 0.4 1.8 60 3.0 SW 37 76 20 41 1013.5 - 4.6
25/02:10am 9.1 0.3 1.3 58 3.2 SW 37 80 20 43 1013.5 - 4.6
25/02:00am 9.1 -3.9 1.5 59 3.2 SW 59 80 32 43 1013.4 - 4.6
25/01:37am 9.0 -3.6 1.2 58 3.2 SW 57 76 31 41 1013.2 - 4.6
25/01:30am 9.0 -5.4 1.7 60 3.0 SW 67 78 36 42 1013.2 - 4.6
25/01:19am 9.1 -3.8 1.8 60 3.0 SW 59 78 32 42 1012.9 - 4.6
25/01:00am 9.0 -5.2 3.4 68 2.4 SW 67 76 36 41 1012.8 - 4.6
25/12:27am 9.1 -5.7 3.1 66 2.6 SW 70 80 38 43 1012.5 - 4.6
25/12:24am 8.9 -2.1 3.1 67 2.5 SW 50 80 27 43 1012.6 - 4.6
25/12:00am 8.8 -6.8 2.6 65 2.6 WSW 74 87 40 47 1011.6 1011.7 4.6
 
Date/Time
EST
Temp
°C
App
Temp
°C
Dew
Point
°C
Rel
Hum
%
Delta-T
°C
Wind Press
QNH
hPa
Press
MSL
hPa
Rain since
9am
mm
Dir  Spd
km/h
Gust
km/h
Spd
kts
Gust
kts
24/11:30pm 8.8 -6.0 1.7 61 2.9 SW 69 89 37 48 1011.3 - 4.6
24/11:01pm 8.7 -5.2 2.9 67 2.5 SW 65 83 35 45 1011.8 - 4.6
24/11:00pm 8.8 -5.4 3.2 68 2.4 SW 67 83 36 45 1011.8 - 4.6
24/10:43pm 8.6 -5.0 2.0 63 2.8 SW 63 82 34 44 1011.2 - 4.6
24/10:30pm 8.8 -5.8 3.0 67 2.5 SW 69 85 37 46 1010.8 - 4.6
24/10:22pm 8.6 -5.7 2.4 65 2.6 SW 67 82 36 44 1011.0 - 4.6
24/10:18pm 8.7 -1.6 2.9 67 2.5 SW 46 82 25 44 1010.9 - 4.6
24/10:00pm 8.6 -6.5 3.2 69 2.3 WSW 72 80 39 43 1010.6 - 4.6
24/09:56pm 8.7 -1.1 3.5 70 2.3 SW 44 80 24 43 1010.6 - 4.6
24/09:30pm 8.3 -5.7 2.3 66 2.5 SW 65 76 35 41 1010.2 - 4.6
24/09:25pm 8.3 -6.1 2.1 65 2.6 SW 67 83 36 45 1009.9 - 4.6
24/09:23pm 8.5 -1.1 3.4 70 2.2 SW 43 91 23 49 1009.8 - 4.6
24/09:15pm 8.8 -6.0 3.2 68 2.4 WSW 70 91 38 49 1009.5 - 4.6
24/09:00pm 8.8 -6.1 2.2 63 2.8 WSW 70 82 38 44 1009.8 1009.9 4.6
24/08:48pm 8.6 -5.2 3.0 68 2.4 WSW 65 76 35 41 1009.7 - 4.6
24/08:46pm 8.3 0.9 3.8 73 2.0 W 32 57 17 31 1010.3 - 4.6
24/08:30pm 6.6 -1.2 1.5 70 2.1 W 32 41 17 22 1010.4 - 4.6
24/08:07pm 6.3 -3.1 2.6 77 1.5 W 41 80 22 43 1010.0 - 4.6
24/08:03pm 6.5 -6.6 2.9 78 1.5 W 61 104 33 56 1009.5 - 4.6
24/08:00pm 6.4 -7.8 2.9 78 1.5 W 67 113 36 61 1008.7 - 4.4
24/07:59pm 6.5 -7.7 2.9 78 1.5 W 67 113 36 61 1008.5 - 4.4
24/07:57pm 6.8 -12.7 3.2 78 1.5 WSW 95 113 51 61 1008.1 - 4.4
24/07:51pm 7.4 -13.5 2.7 72 2.0 WSW 102 113 55 61 1007.1 - 4.4
24/07:50pm 7.6 -6.0 2.3 69 2.2 WSW 63 109 34 59 1007.8 - 4.4
24/07:42pm 8.4 -5.7 1.3 61 2.9 WSW 65 70 35 38 1008.8 - 4.4
24/07:40pm 8.5 0.2 2.3 65 2.6 W 35 70 19 38 1009.0 - 4.4
24/07:34pm 7.9 0.1 2.8 70 2.2 W 33 52 18 28 1009.1 - 4.4
24/07:30pm 7.3 -0.9 2.6 72 2.0 W 35 50 19 27 1009.0 - 4.4
24/07:05pm 7.5 -3.7 1.6 66 2.4 WSW 50 74 27 40 1008.3 - 4.4
24/07:00pm 7.2 -5.6 2.5 72 2.0 SW 59 93 32 50 1007.9 - 4.4
24/06:59pm 7.0 -6.2 2.1 71 2.0 SW 61 93 33 50 1007.7 - 4.4
24/06:53pm 7.1 -10.3 2.4 72 2.0 WSW 83 102 45 55 1007.1 - 4.4
24/06:46pm 7.1 -12.0 3.2 76 1.7 WSW 93 104 50 56 1006.3 - 4.4
24/06:37pm 7.1 -8.3 3.7 79 1.5 SW 74 113 40 61 1006.0 - 4.4
24/06:35pm 6.8 -12.7 3.2 78 1.5 WSW 95 113 51 61 1006.2 - 4.4
24/06:31pm 6.6 -13.7 1.9 72 1.9 WSW 98 113 53 61 1004.9 - 4.2
24/06:30pm 7.4 -5.0 2.7 72 2.0 WSW 57 113 31 61 1005.8 - 4.2
24/06:24pm 8.6 -3.2 2.8 67 2.5 WSW 54 72 29 39 1006.9 - 4.2
24/06:23pm 8.9 -2.5 3.1 67 2.5 SW 52 69 28 37 1007.1 - 4.2
24/06:21pm 8.8 1.9 2.6 65 2.6 W 28 56 15 30 1007.3 - 4.2
24/06:16pm 8.6 1.7 2.4 65 2.6 W 28 56 15 30 1007.2 - 4.2
24/06:05pm 8.6 -3.9 0.8 58 3.2 WSW 56 74 30 40 1006.6 - 4.2
24/06:00pm 8.8 -3.7 0.8 57 3.3 WSW 56 72 30 39 1006.1 1006.1 4.2
24/05:47pm 8.1 -5.2 -0.4 55 3.3 WSW 59 111 32 60 1006.1 - 4.2
24/05:46pm 8.1 -6.3 -0.4 55 3.3 WSW 65 111 35 60 1005.9 - 4.2
24/05:44pm 7.9 -11.7 0.2 58 3.1 SW 93 111 50 60 1004.9 - 4.2
24/05:40pm 7.9 -13.6 1.7 65 2.6 SW 104 111 56 60 1003.6 - 4.2
24/05:38pm 8.4 -8.3 3.1 69 2.3 WSW 80 109 43 59 1004.5 - 4.2
24/05:30pm 8.8 -8.5 1.7 61 2.9 SW 82 95 44 51 1004.7 - 4.2
24/05:28pm 8.8 -9.1 1.7 61 2.9 WSW 85 95 46 51 1004.4 - 4.2
24/05:26pm 8.8 -5.0 3.0 67 2.5 SW 65 83 35 45 1004.9 - 4.2
24/05:00pm 8.0 -5.7 3.7 74 1.9 WSW 65 74 35 40 1004.8 - 4.2
24/04:41pm 8.1 -6.2 2.6 68 2.3 WSW 67 76 36 41 1004.4 - 4.2
24/04:34pm 7.6 -2.0 3.6 76 1.7 W 43 63 23 34 1004.8 - 4.2
24/04:30pm 7.6 -2.1 3.8 77 1.6 W 44 61 24 33 1004.6 - 4.2
24/04:13pm 8.0 -3.6 1.8 65 2.6 W 52 93 28 50 1004.0 - 4.0
24/04:06pm 8.7 -3.8 1.8 62 2.9 WSW 57 93 31 50 1003.1 - 4.0
24/04:03pm 9.1 -2.7 2.9 65 2.7 WSW 54 74 29 40 1003.3 - 4.0
24/04:00pm 8.6 -3.0 4.0 73 2.0 WSW 54 63 29 34 1003.6 - 4.0
24/03:47pm 8.5 -1.5 4.5 76 1.8 SW 46 67 25 36 1003.4 - 4.0
24/03:30pm 8.1 -4.4 4.3 77 1.7 WSW 59 69 32 37 1003.0 - 4.0
24/03:08pm 7.3 -6.9 3.2 75 1.7 SW 67 72 36 39 1002.2 - 4.0
24/03:00pm 6.0 -4.2 3.3 83 1.1 SW 46 117 25 63 1001.9 1002.0 4.0
24/02:57pm 5.4 -6.9 3.3 86 0.9 SW 57 119 31 64 1001.7 - 4.0
24/02:55pm 5.4 -14.7 3.1 85 1.0 SW 98 119 53 64 1001.0 - 3.8
24/02:52pm 5.7 -15.3 2.4 79 1.4 SW 102 119 55 64 1000.1 - 3.8
24/02:50pm 7.5 -5.6 2.8 72 2.0 WSW 61 119 33 64 1001.4 - 3.8
24/02:45pm 8.0 -3.4 2.7 69 2.2 WSW 52 87 28 47 1001.9 - 3.8
24/02:39pm 7.8 -7.5 2.3 68 2.3 WSW 72 91 39 49 1001.3 - 3.8
24/02:35pm 7.6 -9.0 3.3 74 1.8 SW 80 91 43 49 1000.7 - 3.8
24/02:30pm 8.3 -3.1 3.0 69 2.3 SW 52 76 28 41 1001.0 - 3.8
24/02:11pm 8.0 -1.4 4.6 79 1.5 SW 43 63 23 34 1001.7 - 3.8
24/02:00pm 7.8 -3.3 4.6 80 1.4 SW 52 65 28 35 1001.6 - 3.8
24/01:30pm 7.3 -5.9 4.3 81 1.3 SW 63 83 34 45 1000.6 - 3.8
24/01:08pm 7.3 -7.4 3.7 78 1.5 WSW 70 89 38 48 1000.7 - 3.8
24/01:00pm 7.3 -8.5 3.9 79 1.5 WSW 76 93 41 50 1000.2 - 3.8
24/12:46pm 6.8 -9.2 4.6 86 1.0 WSW 78 98 42 53 999.7 - 3.8
24/12:44pm 6.7 -8.5 4.9 88 0.8 WSW 74 87 40 47 1000.1 - 3.8
24/12:30pm 7.3 -2.6 4.6 83 1.2 W 46 69 25 37 1000.8 - 1.2
24/12:00pm 8.4 -1.4 3.1 69 2.3 W 44 70 24 38 1000.1 1000.2 1.2
24/11:32am 8.0 -0.7 4.2 77 1.7 W 39 63 21 34 1000.5 - 1.2
24/11:30am 8.0 -0.6 4.4 78 1.6 W 39 56 21 30 1000.7 - 1.2
24/11:05am 7.6 1.0 4.4 80 1.4 W 28 46 15 25 1000.8 - 1.2
24/11:00am 7.5 0.9 4.3 80 1.4 W 28 41 15 22 1000.7 - 1.2
24/10:30am 7.2 2.4 4.7 84 1.1 W 19 32 10 17 1000.6 - 1.2
24/10:00am 7.8 2.8 4.7 81 1.4 W 20 46 11 25 1000.2 - 0.8
24/09:54am 7.8 -1.2 4.7 81 1.4 WSW 41 59 22 32 1000.0 - 0.8
24/09:30am 7.2 -2.4 4.2 81 1.3 WSW 44 59 24 32 999.1 - 0.8
24/09:00am 6.7 -3.9 5.0 89 0.8 WSW 50 69 27 37 999.2 999.3 29.6
24/08:49am 6.1 -4.6 4.6 90 0.7 WSW 50 72 27 39 998.9 - 28.8
24/08:43am 6.3 -4.4 4.6 89 0.7 WSW 50 61 27 33 999.0 - 26.6
24/08:30am 6.1 -1.2 4.3 88 0.8 W 32 52 17 28 998.9 - 24.6
24/08:07am 6.4 -0.2 4.1 85 1.0 NW 28 59 15 32 998.6 - 21.6
24/08:00am 7.2 1.1 5.0 86 1.0 NW 26 39 14 21 998.5 - 21.2
24/07:30am 7.6 1.6 5.2 85 1.1 SW 26 41 14 22 998.0 - 19.8
24/07:00am 7.6 2.4 5.6 87 0.9 W 22 35 12 19 998.0 - 19.8
24/06:30am 6.9 0.0 4.7 86 1.0 WSW 30 54 16 29 997.8 - 19.6
24/06:07am 7.3 0.9 5.3 87 0.9 WSW 28 52 15 28 996.9 - 19.4
24/06:00am 7.0 1.3 5.0 87 0.9 S 24 69 13 37 997.1 997.1 19.4
24/05:30am 7.9 1.6 5.9 87 0.9 NW 28 61 15 33 996.9 - 18.8
24/05:27am 7.7 1.4 5.7 87 0.9 NW 28 61 15 33 997.1 - 18.8
24/05:00am 7.1 3.2 5.4 89 0.8 WSW 15 28 8 15 997.2 - 18.4
24/04:30am 6.6 3.7 4.6 87 0.9 W 9 28 5 15 997.2 - 18.2
24/04:00am 6.3 0.1 4.1 86 0.9 WNW 26 39 14 21 997.2 - 15.2
24/03:30am 7.5 1.4 4.6 82 1.3 NNW 26 48 14 26 997.0 - 11.0
24/03:21am 7.5 1.0 4.6 82 1.3 NNW 28 50 15 27 997.0 - 10.6
24/03:00am 8.2 2.9 4.8 79 1.5 WNW 22 39 12 21 996.8 996.8 10.6
24/02:30am 8.6 3.6 4.6 76 1.8 WNW 20 30 11 16 996.8 - 10.6
24/02:00am 8.5 3.1 4.7 77 1.7 W 22 37 12 20 996.8 - 10.6
24/01:30am 8.1 2.0 4.9 80 1.4 W 26 35 14 19 996.6 - 10.4
24/01:08am 8.4 2.1 5.5 82 1.3 W 28 48 15 26 996.5 - 10.0
24/01:00am 8.8 4.1 5.9 82 1.3 W 20 37 11 20 996.7 - 9.6
24/12:30am 9.1 3.0 6.4 83 1.3 WSW 28 43 15 23 996.6 - 9.4
24/12:00am 8.2 2.2 5.3 82 1.3 WNW 26 41 14 22 996.3 996.3 9.4
 
Date/Time
EST
Temp
°C
App
Temp
°C
Dew
Point
°C
Rel
Hum
%
Delta-T
°C
Wind Press
QNH
hPa
Press
MSL
hPa
Rain since
9am
mm
Dir  Spd
km/h
Gust
km/h
Spd
kts
Gust
kts
23/11:30pm 7.6 2.4 5.4 86 1.0 WNW 22 32 12 17 996.7 - 9.4
23/11:00pm 7.5 0.8 5.5 87 0.9 W 30 44 16 24 997.2 - 9.0
23/10:30pm 7.4 -0.4 5.0 85 1.1 W 35 54 19 29 997.1 - 6.0
23/10:02pm 8.3 2.0 5.8 84 1.1 W 28 46 15 25 996.7 - 4.4
23/10:00pm 8.3 2.7 5.4 82 1.3 W 24 46 13 25 996.7 - 4.4
23/09:30pm 9.3 3.8 5.7 78 1.6 W 24 35 13 19 996.3 - 3.2
23/09:00pm 9.3 3.0 5.7 78 1.7 W 28 41 15 22 996.4 996.4 3.2
23/08:45pm 9.2 3.0 6.1 81 1.4 W 28 46 15 25 996.4 - 3.2
23/08:30pm 9.0 2.5 6.3 83 1.3 W 30 44 16 24 996.4 - 3.2
23/08:00pm 8.9 2.7 6.2 83 1.2 W 28 41 15 22 996.2 - 3.2
23/07:30pm 9.0 2.1 6.3 83 1.3 W 32 50 17 27 996.0 - 3.0
23/07:01pm 9.2 1.1 7.0 86 1.0 W 39 57 21 31 995.7 - 2.8
23/07:00pm 9.2 0.7 7.0 86 1.0 W 41 57 22 31 995.7 - 2.8
23/06:30pm 9.8 0.9 7.6 86 1.1 W 44 69 24 37 994.9 - 2.4
23/06:00pm 10.8 1.2 6.4 74 2.1 W 46 89 25 48 994.0 994.1 0.4
23/05:57pm 11.5 2.9 6.6 72 2.3 W 41 89 22 48 993.9 - 0.0
23/05:40pm 12.8 5.7 5.5 61 3.4 WNW 32 65 17 35 993.7 - 0.0
23/05:30pm 13.1 8.6 4.3 55 4.0 WNW 17 50 9 27 993.4 - 0.0
23/05:26pm 13.2 8.3 4.1 54 4.2 E 19 69 10 37 993.2 - 0.0
23/05:00pm 13.5 3.7 3.6 51 4.5 NNW 44 89 24 48 992.0 - 0.0
23/04:30pm 13.6 3.5 3.7 51 4.5 NNW 46 89 25 48 992.0 - 0.0
23/04:09pm 13.6 3.5 3.7 51 4.5 NNW 46 104 25 56 992.1 - 0.0
23/04:00pm 13.6 4.1 3.7 51 4.5 NNW 43 85 23 46 991.9 - 0.0
23/03:30pm 13.8 4.0 3.6 50 4.6 NNW 44 89 24 48 993.0 - 0.0
23/03:00pm 13.9 2.6 3.7 50 4.7 NNW 52 91 28 49 993.0 993.1 0.0
23/02:30pm 14.0 3.6 4.0 51 4.6 NNW 48 93 26 50 992.9 - 0.0
23/02:01pm 13.9 4.9 4.5 53 4.4 NNW 41 102 22 55 993.3 - 0.0
23/02:00pm 13.9 5.3 4.5 53 4.4 NNW 39 82 21 44 993.4 - 0.0
23/01:30pm 14.0 3.7 4.9 54 4.3 NNW 48 83 26 45 994.3 - 0.0
23/01:26pm 14.1 2.3 4.7 53 4.4 NNW 56 83 30 45 994.0 - 0.0
23/01:00pm 14.1 7.0 5.5 56 4.1 NNW 32 59 17 32 994.8 - 0.0
23/12:30pm 14.1 5.2 5.2 55 4.2 NNW 41 69 22 37 995.5 - 0.0
23/12:00pm 13.9 5.4 5.3 56 4.1 NNW 39 80 21 43 996.0 996.0 0.0
23/11:30am 13.7 5.7 5.6 58 3.8 NNW 37 69 20 37 996.7 - 0.0
23/11:00am 13.6 4.7 5.3 57 3.9 NNW 41 95 22 51 996.9 - 0.0
23/10:44am 13.4 6.3 5.6 59 3.7 NNW 32 83 17 45 997.7 - 0.0
23/10:30am 13.3 6.2 5.7 60 3.6 NNW 32 65 17 35 998.1 - 0.0
23/10:00am 12.9 5.3 5.6 61 3.4 NNW 35 85 19 46 998.2 - 0.0
23/09:30am 12.7 4.7 5.6 62 3.3 NNW 37 80 20 43 998.7 - 0.0
23/09:02am 12.3 5.5 5.2 62 3.3 NNW 30 83 16 45 998.6 - 0.0
23/09:00am 12.4 6.0 5.3 62 3.3 NNW 28 65 15 35 999.1 999.2 6.2
23/08:32am 11.9 5.1 5.3 64 3.1 NNW 30 82 16 44 999.0 - 6.2
23/08:30am 11.9 5.9 5.3 64 3.1 NNW 26 74 14 40 999.1 - 6.2
23/08:00am 11.9 4.2 5.3 64 3.1 NNW 35 69 19 37 999.0 - 6.2
23/07:30am 11.9 5.4 4.9 62 3.2 NNW 28 59 15 32 999.3 - 6.2
23/07:00am 12.0 4.2 4.7 61 3.3 NNW 35 70 19 38 999.0 - 6.2
23/06:35am 11.9 5.1 5.1 63 3.1 NNW 30 83 16 45 998.8 - 6.2
23/06:30am 11.8 5.0 5.2 64 3.1 NNW 30 63 16 34 998.8 - 6.2
23/06:00am 11.6 4.9 5.5 66 2.9 NNW 30 69 16 37 999.0 999.1 6.2
23/05:39am 11.8 4.7 5.7 66 2.9 NNW 32 83 17 45 999.0 - 6.2
23/05:33am 11.8 5.4 5.4 65 3.0 NNW 28 65 15 35 998.9 - 6.2
23/05:30am 11.9 5.9 5.5 65 3.0 N 26 76 14 41 999.2 - 6.2
23/05:09am 12.0 5.7 5.6 65 3.0 NNW 28 65 15 35 999.2 - 6.2
23/05:00am 12.0 7.7 5.4 64 3.1 N 17 65 9 35 999.8 - 6.2
23/04:30am 12.1 5.8 5.7 65 3.0 NNW 28 74 15 40 999.7 - 6.2
23/04:00am 12.0 5.8 6.3 68 2.7 N 28 78 15 42 1000.0 - 6.2

Other Formats:

Comma delimited format used in spreadsheet applications
http://www.bom.gov.au/fwo/IDV60801/IDV60801.94893.axf

JavaScript Object Notation format (JSON) in row-major order
http://www.bom.gov.au/fwo/IDV60801/IDV60801.94893.json